Terminal Aerodrome Forecast
Issued by NWS Denver/Boulder, CO

Home | Current Version | Previous Version | Text Only | Print | Product List | Glossary On
Versions: 1 2 3 4 5 6 7 8 9 10 11 12 13 14 15 16 17 18 19 20 21 22 23 24 25 26 27 28
000
FTUS45 KBOU 110910 AAA
TAFDEN
TAF AMD
KDEN 110910Z 1109/1212 21011KT P6SM SCT220
     FM111600 15006KT P6SM FEW110 SCT220
     FM112000 06010KT P6SM FEW100 BKN220
     FM120200 15007KT P6SM FEW120 SCT200
     FM120500 22007KT P6SM FEW200=

USA.gov is the U.S. government's official web portal to all federal, state and local government web resources and services.